createdAt,value
2022-12-18T00:06:23.663Z,10.40
2022-12-18T00:08:50.958Z,10.35
2022-12-18T00:11:22.634Z,8.88
2022-12-18T00:13:53.060Z,9.80
2022-12-18T00:16:24.963Z,10.48
2022-12-18T00:18:57.679Z,11.98
2022-12-18T00:21:30.892Z,10.80
2022-12-18T00:24:10.693Z,9.23
2022-12-18T00:26:40.888Z,10.38
2022-12-18T00:29:24.158Z,10.90
2022-12-18T00:32:07.589Z,8.02
2022-12-18T00:34:55.851Z,10.95
2022-12-18T00:37:25.856Z,9.13
2022-12-18T00:39:52.816Z,11.23
2022-12-18T00:42:39.025Z,10.45
2022-12-18T00:45:12.285Z,12.88
2022-12-18T00:47:40.339Z,11.00
2022-12-18T00:50:08.203Z,10.13
2022-12-18T00:52:37.748Z,10.60
2022-12-18T00:55:12.437Z,9.80
2022-12-18T00:57:45.403Z,10.83
2022-12-18T01:00:34.237Z,11.65
2022-12-18T01:03:04.102Z,10.95
2022-12-18T01:12:42.986Z,9.75
2022-12-18T01:15:30.838Z,9.48
2022-12-18T01:18:15.770Z,9.05
2022-12-18T01:21:10.543Z,8.60
2022-12-18T01:24:17.680Z,11.15
2022-12-18T01:27:05.776Z,11.85
2022-12-18T01:29:38.662Z,11.93
2022-12-18T01:32:59.243Z,8.63
2022-12-18T01:36:11.416Z,9.60
2022-12-18T01:39:06.524Z,9.50
2022-12-18T01:45:01.252Z,11.57
2022-12-18T01:48:20.042Z,9.88
2022-12-18T01:50:55.199Z,13.00
2022-12-18T01:53:46.046Z,12.88
2022-12-18T01:56:30.809Z,12.30
2022-12-18T01:59:30.110Z,10.77
2022-12-18T02:02:13.715Z,13.45
2022-12-18T02:04:51.625Z,10.82
2022-12-18T02:07:49.995Z,12.15
2022-12-18T02:10:44.592Z,13.88
2022-12-18T02:13:33.359Z,9.32
2022-12-18T02:17:04.575Z,13.00
2022-12-18T02:19:57.293Z,15.20
2022-12-18T02:22:46.053Z,14.10
2022-12-18T02:25:36.791Z,11.05
2022-12-18T02:28:29.983Z,13.75
2022-12-18T02:31:22.897Z,13.77
2022-12-18T02:34:03.064Z,11.80
2022-12-18T02:36:35.054Z,12.25
2022-12-18T02:39:05.049Z,10.27
2022-12-18T02:41:33.156Z,12.23
2022-12-18T02:44:09.938Z,13.35
2022-12-18T02:46:56.225Z,12.77
2022-12-18T02:50:05.349Z,13.52
2022-12-18T02:53:10.714Z,9.40
2022-12-18T02:56:14.622Z,11.95
2022-12-18T02:59:16.661Z,12.65
2022-12-18T03:02:25.135Z,12.55
2022-12-18T03:05:12.572Z,9.50
2022-12-18T03:08:05.084Z,11.55
2022-12-18T03:11:01.207Z,10.55
2022-12-18T03:13:43.184Z,11.25
2022-12-18T03:16:32.051Z,11.20
2022-12-18T03:19:19.744Z,10.20
2022-12-18T03:22:01.568Z,10.98
2022-12-18T03:24:40.845Z,10.68
2022-12-18T03:27:23.097Z,10.07
2022-12-18T03:30:10.794Z,8.70
2022-12-18T03:33:08.805Z,10.35
2022-12-18T03:35:47.994Z,9.90
2022-12-18T03:38:17.439Z,7.57
2022-12-18T03:40:56.846Z,9.77
2022-12-18T03:43:39.933Z,9.43
2022-12-18T03:47:12.731Z,10.10
2022-12-18T03:50:49.819Z,9.98
2022-12-18T03:53:36.941Z,10.40
2022-12-18T03:56:08.919Z,9.82
2022-12-18T03:58:42.196Z,9.60
2022-12-18T04:01:24.294Z,9.27
2022-12-18T04:03:52.738Z,8.90
2022-12-18T04:06:25.068Z,8.15
2022-12-18T04:08:53.374Z,9.32
2022-12-18T04:11:24.620Z,9.95
2022-12-18T04:13:53.658Z,10.73
2022-12-18T04:16:26.953Z,9.23
2022-12-18T04:18:59.138Z,10.05
2022-12-18T04:21:30.528Z,10.13
2022-12-18T04:23:57.477Z,9.68
2022-12-18T04:26:27.535Z,9.23
2022-12-18T04:29:26.255Z,8.98
2022-12-18T04:31:53.580Z,10.05
2022-12-18T04:34:22.089Z,8.40
2022-12-18T04:36:57.609Z,9.15
2022-12-18T04:39:25.910Z,10.02
2022-12-18T04:41:58.864Z,9.43
2022-12-18T04:44:26.110Z,8.40
2022-12-18T04:46:56.233Z,7.82
2022-12-18T04:49:24.415Z,7.13
2022-12-18T04:51:54.650Z,7.30
2022-12-18T04:54:25.009Z,8.52
2022-12-18T04:56:52.008Z,9.02
2022-12-18T04:59:24.917Z,8.27
2022-12-18T05:01:57.589Z,9.35
2022-12-18T05:04:29.759Z,9.45
2022-12-18T05:06:56.779Z,8.48
2022-12-18T05:09:26.836Z,8.48
2022-12-18T05:11:56.857Z,7.35
2022-12-18T05:14:28.633Z,8.45
2022-12-18T05:17:00.716Z,9.07
2022-12-18T05:19:33.138Z,8.57
2022-12-18T05:22:01.517Z,9.95
2022-12-18T05:24:28.480Z,10.52
2022-12-18T05:27:50.759Z,8.07
2022-12-18T05:33:29.688Z,10.90
2022-12-18T05:36:10.903Z,10.15
2022-12-18T05:38:42.824Z,9.65
2022-12-18T05:41:13.309Z,7.45
2022-12-18T05:47:06.736Z,9.63
2022-12-18T05:49:39.921Z,8.35
2022-12-18T05:52:12.656Z,9.02
2022-12-18T05:54:45.349Z,8.60
2022-12-18T05:57:17.157Z,9.40
2022-12-18T06:02:41.532Z,8.40
2022-12-18T06:05:10.252Z,8.57
2022-12-18T06:08:30.404Z,8.90
2022-12-18T06:11:32.738Z,8.48
2022-12-18T06:14:22.349Z,8.98
2022-12-18T06:16:55.044Z,7.63
2022-12-18T06:19:28.054Z,8.50
2022-12-18T06:24:31.551Z,7.80
2022-12-18T06:27:44.303Z,9.07
2022-12-18T06:30:49.845Z,7.68
2022-12-18T06:33:22.745Z,8.57
2022-12-18T06:36:22.258Z,8.77
2022-12-18T06:39:20.687Z,8.23
2022-12-18T06:41:50.171Z,7.70
2022-12-18T06:44:50.774Z,8.27
2022-12-18T06:47:37.929Z,8.32
2022-12-18T06:50:46.832Z,8.23
2022-12-18T06:53:44.386Z,9.32
2022-12-18T06:57:11.725Z,7.40
2022-12-18T07:00:20.396Z,9.05
2022-12-18T08:40:34.793Z,6.93
2022-12-18T08:44:14.599Z,7.55
2022-12-18T08:47:40.301Z,6.18
2022-12-18T10:06:08.880Z,4.88
2022-12-18T10:08:37.091Z,7.13
2022-12-18T10:11:17.707Z,5.18
2022-12-18T10:14:02.518Z,5.97
2022-12-18T10:27:30.229Z,6.40
2022-12-18T10:30:18.061Z,6.57
2022-12-18T10:32:46.926Z,6.82
2022-12-18T10:35:24.511Z,6.90
2022-12-18T10:38:21.780Z,5.13
2022-12-18T10:40:59.096Z,5.90
2022-12-18T10:43:33.708Z,6.22
2022-12-18T10:46:23.783Z,6.40
2022-12-18T10:48:55.662Z,6.65
2022-12-18T10:51:31.505Z,7.65
2022-12-18T10:54:08.657Z,5.75
2022-12-18T10:56:38.511Z,7.00
2022-12-18T10:59:21.509Z,6.85
2022-12-18T11:01:59.109Z,4.80
2022-12-18T11:04:29.650Z,5.40
2022-12-18T11:07:15.229Z,6.68
2022-12-18T11:10:09.472Z,7.13
2022-12-18T11:12:43.842Z,6.13
2022-12-18T11:15:29.275Z,5.55
2022-12-18T11:18:32.736Z,6.13
2022-12-18T11:21:15.719Z,6.57
2022-12-18T11:24:15.501Z,4.38
2022-12-18T11:26:44.779Z,6.55
2022-12-18T11:29:25.455Z,6.28
2022-12-18T11:32:32.989Z,6.60
2022-12-18T11:35:37.197Z,4.40
2022-12-18T11:38:27.685Z,6.75
2022-12-18T11:41:17.730Z,6.13
2022-12-18T11:44:08.086Z,5.80
2022-12-18T11:47:21.408Z,5.15
2022-12-18T11:49:50.632Z,5.13
2022-12-18T11:55:40.347Z,5.10
2022-12-18T11:59:14.859Z,5.45
2022-12-18T12:04:49.172Z,6.38
2022-12-18T12:07:27.936Z,6.57
2022-12-18T12:10:41.458Z,5.22
2022-12-18T12:53:43.192Z,6.88
2022-12-18T12:56:19.240Z,6.93
2022-12-18T12:59:19.364Z,5.82
2022-12-18T13:02:05.281Z,6.85
2022-12-18T13:04:43.532Z,6.40
2022-12-18T13:07:16.743Z,4.07
2022-12-18T13:10:17.259Z,6.47
2022-12-18T13:13:17.356Z,5.97
2022-12-18T13:16:07.441Z,5.03
2022-12-18T13:18:34.850Z,6.20
2022-12-18T13:21:03.656Z,5.80
2022-12-18T13:23:35.383Z,5.88
2022-12-18T13:26:11.386Z,5.63
2022-12-18T13:28:47.896Z,5.65
2022-12-18T13:31:41.196Z,6.60
2022-12-18T13:34:31.043Z,6.18
2022-12-18T13:37:35.978Z,5.97
2022-12-18T13:40:03.987Z,6.60
2022-12-18T13:42:49.477Z,5.28
2022-12-18T13:45:46.066Z,6.60
2022-12-18T13:48:24.815Z,6.03
2022-12-18T13:51:10.962Z,6.70
2022-12-18T13:53:47.702Z,6.55
2022-12-18T13:56:18.950Z,5.80
2022-12-18T13:58:46.306Z,6.97
2022-12-18T14:01:24.264Z,5.90
2022-12-18T14:04:18.665Z,5.00
2022-12-18T14:06:47.533Z,6.57
2022-12-18T14:09:21.369Z,6.90
2022-12-18T14:11:50.635Z,7.20
2022-12-18T14:14:20.950Z,6.80
2022-12-18T14:16:51.125Z,6.82
2022-12-18T14:19:23.089Z,6.45
2022-12-18T14:21:51.599Z,6.50
2022-12-18T14:24:25.445Z,6.53
2022-12-18T14:26:52.470Z,4.60
2022-12-18T14:29:32.088Z,6.82
2022-12-18T14:32:17.678Z,6.00
2022-12-18T14:34:50.035Z,6.38
2022-12-18T14:37:22.030Z,5.28
2022-12-18T14:40:16.212Z,5.53
2022-12-18T14:42:53.818Z,4.43
2022-12-18T14:45:44.463Z,5.22
2022-12-18T14:48:26.597Z,6.55
2022-12-18T14:51:11.631Z,6.45
2022-12-18T14:54:16.495Z,6.00
2022-12-18T14:57:16.300Z,4.63
2022-12-18T14:59:52.520Z,6.53
2022-12-18T15:02:22.251Z,6.05
2022-12-18T15:05:24.283Z,8.13
2022-12-18T15:08:01.922Z,5.65
2022-12-18T15:10:35.978Z,6.32
2022-12-18T15:13:09.379Z,6.20
2022-12-18T15:15:41.972Z,6.80
2022-12-18T15:18:21.822Z,6.78
2022-12-18T15:20:57.476Z,6.65
2022-12-18T15:23:48.425Z,6.97
2022-12-18T15:26:29.589Z,7.30
2022-12-18T15:29:09.081Z,6.60
2022-12-18T15:31:43.914Z,7.03
2022-12-18T15:34:23.560Z,6.32
2022-12-18T15:40:01.076Z,5.78
2022-12-18T15:45:30.601Z,6.55
2022-12-18T15:48:05.321Z,5.13
2022-12-18T15:50:32.170Z,5.22
2022-12-18T15:53:00.208Z,6.00
2022-12-18T15:55:46.645Z,5.88
2022-12-18T15:58:14.519Z,6.03
2022-12-18T16:00:43.067Z,6.65
2022-12-18T16:03:14.921Z,6.97
2022-12-18T16:05:46.940Z,7.00
2022-12-18T16:08:16.911Z,6.78
2022-12-18T16:11:00.767Z,7.45
2022-12-18T16:13:29.254Z,7.72
2022-12-18T16:16:01.704Z,7.28
2022-12-18T16:18:35.620Z,7.95
2022-12-18T16:21:09.234Z,9.10
2022-12-18T16:23:37.362Z,8.13
2022-12-18T16:26:07.920Z,8.73
2022-12-18T16:28:48.431Z,9.55
2022-12-18T16:31:18.135Z,8.68
2022-12-18T16:33:55.389Z,8.32
2022-12-18T16:36:25.433Z,7.93
2022-12-18T16:39:13.382Z,7.35
2022-12-18T16:44:41.349Z,6.35
2022-12-18T16:47:10.351Z,7.35
2022-12-18T16:49:56.846Z,5.78
2022-12-18T16:52:30.838Z,6.60
2022-12-18T16:55:03.796Z,5.78
2022-12-18T16:57:43.379Z,6.93
2022-12-18T17:00:14.068Z,6.70
2022-12-18T17:02:56.400Z,4.80
2022-12-18T17:05:26.146Z,7.25
2022-12-18T17:07:53.243Z,7.40
2022-12-18T17:10:23.456Z,6.60
2022-12-18T17:12:59.421Z,6.63
2022-12-18T17:15:35.316Z,7.85
2022-12-18T17:18:15.848Z,7.38
2022-12-18T17:20:44.669Z,6.60
2022-12-18T17:23:14.601Z,6.22
2022-12-18T17:25:52.247Z,6.85
2022-12-18T17:28:25.672Z,7.18
2022-12-18T17:31:23.509Z,7.50
2022-12-18T17:33:57.687Z,7.20
2022-12-18T17:36:28.863Z,7.78
2022-12-18T17:39:11.838Z,7.78
2022-12-18T17:41:45.455Z,5.03
2022-12-18T17:44:15.945Z,7.13
2022-12-18T17:46:52.164Z,6.82
2022-12-18T17:49:22.507Z,7.45
2022-12-18T17:56:50.813Z,6.90
2022-12-18T17:58:13.674Z,7.13
2022-12-18T18:01:01.618Z,8.18
2022-12-18T18:03:33.880Z,7.22
2022-12-18T18:06:10.242Z,7.30
2022-12-18T18:08:53.690Z,6.35
2022-12-18T18:11:50.282Z,8.27
2022-12-18T18:14:36.270Z,7.22
2022-12-18T18:17:07.806Z,6.60
2022-12-18T18:19:41.994Z,6.80
2022-12-18T18:22:13.427Z,7.07
2022-12-18T18:24:50.000Z,6.53
2022-12-18T18:30:42.680Z,6.95
2022-12-18T18:33:13.757Z,7.40
2022-12-18T18:35:53.749Z,7.57
2022-12-18T18:38:35.758Z,7.07
2022-12-18T18:41:04.583Z,7.45
2022-12-18T18:43:37.515Z,6.30
2022-12-18T18:46:07.559Z,7.43
2022-12-18T18:48:38.991Z,7.90
2022-12-18T18:51:14.617Z,7.70
2022-12-18T18:53:52.246Z,7.22
2022-12-18T18:56:45.626Z,7.53
2022-12-18T18:59:10.456Z,6.13
2022-12-18T19:01:48.748Z,6.72
2022-12-18T19:04:27.024Z,6.18
2022-12-18T19:06:58.593Z,7.13
2022-12-18T19:09:29.577Z,7.00
2022-12-18T19:12:15.541Z,5.82
2022-12-18T19:14:46.794Z,6.53
2022-12-18T19:17:16.206Z,6.95
2022-12-18T19:19:43.668Z,6.43
2022-12-18T19:22:11.067Z,6.65
2022-12-18T19:24:38.644Z,6.18
2022-12-18T19:27:11.124Z,5.65
2022-12-18T19:29:41.297Z,5.75
2022-12-18T19:32:12.663Z,6.40
2022-12-18T19:34:45.559Z,5.32
2022-12-18T19:37:17.982Z,5.65
2022-12-18T19:40:14.823Z,5.47
2022-12-18T19:42:45.017Z,6.28
2022-12-18T19:45:14.416Z,5.85
2022-12-18T19:47:48.698Z,4.97
2022-12-18T19:50:47.820Z,5.72
2022-12-18T19:53:18.052Z,5.85
2022-12-18T19:55:47.782Z,5.95
2022-12-18T19:58:42.499Z,5.90
2022-12-18T20:01:30.753Z,5.88
2022-12-18T20:04:08.438Z,5.88
2022-12-18T20:07:10.573Z,6.00
2022-12-18T20:09:40.519Z,5.30
2022-12-18T20:12:13.980Z,5.00
2022-12-18T20:14:52.027Z,6.32
2022-12-18T20:17:19.620Z,5.45
2022-12-18T20:19:49.226Z,5.55
2022-12-18T20:22:23.392Z,5.22
2022-12-18T20:24:57.693Z,5.95
2022-12-18T20:27:41.259Z,6.28
2022-12-18T20:30:53.217Z,6.05
2022-12-18T20:34:20.166Z,5.50
2022-12-18T20:36:47.584Z,5.75
2022-12-18T20:39:14.723Z,5.07
2022-12-18T20:41:42.583Z,5.85
2022-12-18T20:44:22.388Z,5.72
2022-12-18T20:47:08.996Z,5.35
2022-12-18T20:49:36.238Z,5.55
2022-12-18T20:52:07.279Z,5.40
2022-12-18T20:54:49.316Z,5.28
2022-12-18T20:58:09.050Z,5.93
2022-12-18T21:03:32.761Z,5.32
2022-12-18T21:06:13.977Z,5.75
2022-12-18T21:08:43.048Z,5.22
2022-12-18T21:11:42.382Z,4.68
2022-12-18T21:14:15.605Z,4.65
2022-12-18T21:16:47.350Z,5.28
2022-12-18T21:19:43.572Z,5.68
2022-12-18T23:41:11.324Z,5.22
